createdAt,value
2023-05-17T00:01:47.274Z,3.30
2023-05-17T00:04:13.919Z,3.50
2023-05-17T00:06:41.096Z,2.88
2023-05-17T00:09:07.733Z,3.50
2023-05-17T00:11:34.394Z,3.50
2023-05-17T00:14:00.973Z,3.63
2023-05-17T00:16:27.668Z,3.88
2023-05-17T00:18:54.620Z,3.40
2023-05-17T00:21:21.267Z,3.55
2023-05-17T00:23:47.757Z,3.10
2023-05-17T00:26:14.276Z,3.38
2023-05-17T00:28:40.772Z,3.83
2023-05-17T00:31:07.324Z,3.50
2023-05-17T00:33:33.871Z,3.35
2023-05-17T00:36:00.438Z,3.28
2023-05-17T00:38:26.925Z,3.47
2023-05-17T00:40:54.198Z,4.07
2023-05-17T00:43:20.856Z,3.08
2023-05-17T00:45:49.337Z,3.03
2023-05-17T00:48:16.229Z,3.13
2023-05-17T00:50:43.197Z,3.75
2023-05-17T00:53:10.000Z,4.13
2023-05-17T00:55:36.600Z,3.40
2023-05-17T00:58:08.871Z,3.90
2023-05-17T01:00:37.334Z,3.30
2023-05-17T01:03:04.197Z,3.55
2023-05-17T01:05:31.495Z,3.42
2023-05-17T01:07:58.050Z,3.40
2023-05-17T01:10:35.031Z,3.95
2023-05-17T01:13:42.325Z,4.38
2023-05-17T01:16:37.068Z,3.83
2023-05-17T01:19:40.132Z,3.65
2023-05-17T01:22:45.981Z,4.97
2023-05-17T01:25:47.065Z,3.80
2023-05-17T01:28:15.026Z,3.80
2023-05-17T01:30:43.771Z,3.88
2023-05-17T01:33:11.222Z,3.53
2023-05-17T01:35:37.839Z,4.38
2023-05-17T01:38:04.355Z,4.20
2023-05-17T01:40:35.462Z,3.83
2023-05-17T01:43:15.468Z,3.85
2023-05-17T01:45:49.907Z,4.05
2023-05-17T01:48:19.511Z,4.40
2023-05-17T01:50:51.121Z,4.57
2023-05-17T01:53:29.205Z,4.03
2023-05-17T01:56:01.282Z,4.28
2023-05-17T01:58:30.651Z,4.10
2023-05-17T02:01:00.561Z,4.68
2023-05-17T02:03:29.037Z,4.35
2023-05-17T02:05:55.598Z,4.47
2023-05-17T02:08:22.227Z,4.85
2023-05-17T02:10:48.776Z,4.82
2023-05-17T02:13:15.233Z,4.53
2023-05-17T02:15:41.711Z,4.47
2023-05-17T02:18:08.353Z,4.68
2023-05-17T02:20:35.026Z,5.68
2023-05-17T02:23:01.545Z,5.20
2023-05-17T02:25:28.277Z,5.47
2023-05-17T02:27:55.428Z,5.65
2023-05-17T02:30:22.330Z,4.93
2023-05-17T02:32:48.925Z,5.40
2023-05-17T02:35:15.825Z,4.72
2023-05-17T02:37:42.283Z,5.88
2023-05-17T02:40:09.923Z,4.93
2023-05-17T02:42:36.957Z,6.07
2023-05-17T02:45:03.944Z,5.82
2023-05-17T02:47:30.653Z,7.20
2023-05-17T02:49:59.910Z,5.97
2023-05-17T02:52:26.406Z,5.53
2023-05-17T02:54:52.929Z,5.68
2023-05-17T02:57:19.489Z,6.50
2023-05-17T02:59:46.098Z,5.53
2023-05-17T03:02:12.880Z,7.53
2023-05-17T03:04:39.445Z,5.72
2023-05-17T03:07:07.251Z,6.47
2023-05-17T03:09:34.320Z,6.45
2023-05-17T03:12:01.104Z,5.95
2023-05-17T03:14:27.625Z,6.30
2023-05-17T03:16:54.117Z,5.50
2023-05-17T03:19:20.833Z,5.57
2023-05-17T03:21:47.366Z,6.00
2023-05-17T03:24:13.878Z,6.43
2023-05-17T03:26:40.413Z,5.97
2023-05-17T03:29:06.932Z,6.38
2023-05-17T03:31:33.531Z,8.07
2023-05-17T03:34:00.077Z,6.13
2023-05-17T03:36:26.581Z,5.70
2023-05-17T03:38:53.042Z,6.43
2023-05-17T03:41:19.731Z,7.00
2023-05-17T03:43:46.233Z,6.55
2023-05-17T03:46:12.822Z,7.38
2023-05-17T03:48:39.382Z,7.75
2023-05-17T03:51:06.249Z,6.75
2023-05-17T03:53:32.754Z,7.00
2023-05-17T03:55:59.229Z,7.38
2023-05-17T03:58:25.726Z,7.25
2023-05-17T04:00:52.230Z,6.20
2023-05-17T04:03:20.129Z,6.97
2023-05-17T04:05:47.128Z,6.75
2023-05-17T04:08:16.586Z,6.88
2023-05-17T04:10:43.265Z,7.05
2023-05-17T04:13:09.820Z,7.03
2023-05-17T04:15:36.746Z,7.65
2023-05-17T04:18:03.364Z,6.18
2023-05-17T04:20:30.127Z,6.05
2023-05-17T04:22:56.726Z,9.38
2023-05-17T04:25:24.627Z,6.43
2023-05-17T04:27:51.140Z,7.43
2023-05-17T04:30:17.766Z,6.82
2023-05-17T04:32:44.294Z,7.75
2023-05-17T04:35:10.886Z,7.60
2023-05-17T04:37:39.793Z,6.93
2023-05-17T04:40:07.915Z,6.80
2023-05-17T04:42:34.890Z,8.38
2023-05-17T04:45:01.573Z,6.82
2023-05-17T04:47:28.285Z,6.72
2023-05-17T04:49:56.233Z,7.50
2023-05-17T04:52:22.743Z,6.63
2023-05-17T04:54:50.212Z,8.02
2023-05-17T04:57:16.803Z,8.15
2023-05-17T04:59:43.345Z,7.68
2023-05-17T05:02:10.579Z,7.57
2023-05-17T05:04:37.223Z,7.30
2023-05-17T05:07:03.922Z,8.07
2023-05-17T05:09:30.497Z,8.00
2023-05-17T05:11:57.069Z,7.80
2023-05-17T05:14:23.640Z,7.30
2023-05-17T05:16:50.134Z,8.27
2023-05-17T05:19:16.927Z,7.88
2023-05-17T05:21:46.482Z,7.18
2023-05-17T05:24:12.965Z,7.55
2023-05-17T05:26:39.568Z,7.03
2023-05-17T05:29:06.103Z,7.57
2023-05-17T05:31:32.657Z,9.00
2023-05-17T05:33:59.131Z,6.82
2023-05-17T05:36:25.850Z,8.02
2023-05-17T05:38:54.473Z,7.20
2023-05-17T05:41:21.046Z,7.45
2023-05-17T05:43:47.562Z,7.57
2023-05-17T05:46:14.067Z,6.15
2023-05-17T05:48:43.439Z,6.50
2023-05-17T05:51:10.852Z,6.55
2023-05-17T05:53:38.600Z,5.03
2023-05-17T05:56:05.429Z,6.75
2023-05-17T05:58:32.125Z,6.25
2023-05-17T06:00:59.978Z,5.70
2023-05-17T06:03:26.625Z,5.05
2023-05-17T06:05:53.454Z,5.35
2023-05-17T06:08:20.031Z,4.75
2023-05-17T06:10:46.914Z,5.75
2023-05-17T06:13:13.853Z,5.10
2023-05-17T06:15:40.817Z,3.40
2023-05-17T06:18:07.447Z,2.80
2023-05-17T06:20:34.017Z,3.72
2023-05-17T06:23:00.576Z,3.83
2023-05-17T06:25:27.124Z,3.17
2023-05-17T06:27:53.624Z,4.15
2023-05-17T06:30:20.314Z,4.13
2023-05-17T06:32:46.857Z,2.88
2023-05-17T06:35:13.422Z,3.22
2023-05-17T06:37:39.935Z,3.00
2023-05-17T06:40:16.101Z,3.78
2023-05-17T06:42:43.786Z,4.13
2023-05-17T06:45:10.957Z,4.07
2023-05-17T06:47:37.714Z,3.75
2023-05-17T06:50:04.521Z,3.63
2023-05-17T06:52:31.108Z,3.35
2023-05-17T06:54:57.685Z,4.38
2023-05-17T06:57:24.859Z,3.10
2023-05-17T06:59:52.238Z,2.20
2023-05-17T07:02:19.416Z,3.50
2023-05-17T07:04:46.141Z,2.55
2023-05-17T07:07:12.766Z,3.45
2023-05-17T07:09:39.921Z,3.05
2023-05-17T07:12:06.862Z,5.10
2023-05-17T07:14:33.518Z,3.08
2023-05-17T07:17:00.055Z,3.35
2023-05-17T07:19:26.744Z,2.88
2023-05-17T07:21:53.397Z,3.10
2023-05-17T07:24:19.905Z,2.80
2023-05-17T07:26:46.452Z,3.03
2023-05-17T07:29:13.111Z,2.30
2023-05-17T07:31:39.655Z,1.92
2023-05-17T07:34:06.189Z,2.72
2023-05-17T07:36:32.770Z,2.67
2023-05-17T07:38:59.333Z,2.85
2023-05-17T07:41:27.124Z,1.98
2023-05-17T07:43:53.702Z,2.92
2023-05-17T07:46:20.346Z,2.35
2023-05-17T07:48:47.030Z,2.40
2023-05-17T07:51:13.911Z,2.42
2023-05-17T07:53:40.600Z,2.05
2023-05-17T07:56:07.314Z,2.45
2023-05-17T07:58:33.978Z,2.00
2023-05-17T08:01:00.475Z,2.08
2023-05-17T08:03:28.439Z,1.88
2023-05-17T08:05:55.073Z,2.55
2023-05-17T08:08:21.916Z,2.20
2023-05-17T08:10:48.498Z,2.55
2023-05-17T08:13:15.161Z,1.90
2023-05-17T08:15:41.663Z,2.63
2023-05-17T08:18:08.263Z,2.28
2023-05-17T08:20:34.883Z,1.48
2023-05-17T08:23:01.487Z,3.03
2023-05-17T08:25:30.275Z,3.58
2023-05-17T08:27:56.942Z,2.25
2023-05-17T08:30:28.981Z,1.33
2023-05-17T08:32:56.760Z,2.78
2023-05-17T08:35:26.958Z,1.33
2023-05-17T08:37:55.056Z,2.70
2023-05-17T08:40:21.963Z,2.67
2023-05-17T08:42:53.041Z,2.70
2023-05-17T08:45:19.729Z,3.10
2023-05-17T08:47:46.618Z,5.05
2023-05-17T08:50:14.390Z,2.90
2023-05-17T08:52:44.814Z,3.30
2023-05-17T08:55:11.954Z,2.63
2023-05-17T08:57:40.374Z,3.13
2023-05-17T09:00:13.509Z,1.92
2023-05-17T09:02:42.177Z,2.40
2023-05-17T09:05:10.879Z,3.17
2023-05-17T09:07:37.714Z,2.60
2023-05-17T09:10:05.813Z,3.45
2023-05-17T09:12:36.730Z,1.80
2023-05-17T09:15:20.856Z,2.33
2023-05-17T09:17:54.572Z,2.05
2023-05-17T09:20:25.040Z,1.45
2023-05-17T09:22:52.481Z,4.20
2023-05-17T09:25:20.222Z,2.67
2023-05-17T09:27:46.814Z,2.28
2023-05-17T09:30:13.458Z,3.08
2023-05-17T09:32:47.013Z,3.25
2023-05-17T09:35:14.039Z,3.42
2023-05-17T09:37:43.229Z,2.60
2023-05-17T09:40:10.677Z,1.95
2023-05-17T09:42:39.147Z,2.67
2023-05-17T09:45:05.952Z,2.42
2023-05-17T09:47:35.245Z,2.70
2023-05-17T09:50:03.696Z,1.45
2023-05-17T09:52:35.166Z,2.75
2023-05-17T09:55:01.871Z,2.42
2023-05-17T09:57:36.881Z,2.65
2023-05-17T10:00:12.072Z,2.10
2023-05-17T10:02:41.239Z,2.50
2023-05-17T10:05:11.962Z,2.70
2023-05-17T10:07:38.953Z,2.88
2023-05-17T10:10:06.596Z,2.75
2023-05-17T10:12:38.505Z,2.38
2023-05-17T10:15:05.618Z,2.92
2023-05-17T10:17:32.325Z,3.15
2023-05-17T10:19:59.377Z,4.03
2023-05-17T10:22:27.541Z,3.28
2023-05-17T10:24:56.089Z,3.65
2023-05-17T10:27:23.928Z,4.60
2023-05-17T10:29:53.431Z,4.80
2023-05-17T10:32:23.508Z,4.85
2023-05-17T10:34:58.089Z,5.47
2023-05-17T10:37:33.834Z,3.80
2023-05-17T10:40:00.689Z,3.22
2023-05-17T10:42:28.013Z,3.10
2023-05-17T10:44:54.811Z,2.15
2023-05-17T10:47:22.292Z,3.08
2023-05-17T10:49:51.551Z,2.00
2023-05-17T10:52:21.266Z,2.55
2023-05-17T10:54:50.140Z,2.20
2023-05-17T10:57:22.422Z,2.03
2023-05-17T11:00:00.739Z,3.83
2023-05-17T11:02:28.858Z,3.10
2023-05-17T11:05:00.440Z,2.05
2023-05-17T11:07:33.748Z,2.70
2023-05-17T11:10:00.471Z,2.28
2023-05-17T11:12:38.395Z,2.22
2023-05-17T11:15:12.168Z,2.83
2023-05-17T11:17:44.703Z,2.42
2023-05-17T11:20:32.618Z,2.30
2023-05-17T11:23:02.198Z,2.13
2023-05-17T11:25:36.905Z,2.30
2023-05-17T11:28:08.894Z,2.40
2023-05-17T11:30:41.922Z,2.38
2023-05-17T11:33:20.484Z,2.10
2023-05-17T11:35:54.728Z,2.97
2023-05-17T11:38:24.394Z,2.20
2023-05-17T11:40:54.855Z,1.83
2023-05-17T11:43:23.336Z,2.42
2023-05-17T11:45:53.409Z,2.63
2023-05-17T11:48:22.842Z,2.50
2023-05-17T11:50:51.275Z,3.55
2023-05-17T11:53:18.693Z,2.00
2023-05-17T11:55:47.957Z,2.40
2023-05-17T11:58:21.073Z,2.88
2023-05-17T12:00:53.698Z,2.58
2023-05-17T12:03:21.402Z,2.13
2023-05-17T12:05:50.160Z,1.83
2023-05-17T12:08:19.137Z,2.45
2023-05-17T12:10:50.853Z,1.95
2023-05-17T12:13:17.863Z,2.00
2023-05-17T12:15:48.496Z,2.20
2023-05-17T12:18:15.157Z,2.83
2023-05-17T12:20:57.834Z,1.55
2023-05-17T12:23:33.218Z,2.45
2023-05-17T12:26:06.636Z,3.33
2023-05-17T12:28:33.992Z,2.10
2023-05-17T12:31:04.980Z,2.50
2023-05-17T12:33:37.079Z,2.55
2023-05-17T12:36:04.431Z,2.28
2023-05-17T12:38:35.078Z,1.73
2023-05-17T12:41:06.642Z,1.95
2023-05-17T12:43:34.817Z,2.35
2023-05-17T12:46:07.229Z,1.73
2023-05-17T12:48:38.294Z,2.28
2023-05-17T12:51:12.184Z,2.88
2023-05-17T12:53:49.492Z,3.58
2023-05-17T12:56:18.060Z,2.05
2023-05-17T12:59:03.181Z,2.30
2023-05-17T13:01:43.767Z,2.33
2023-05-17T13:04:11.511Z,2.30
2023-05-17T13:06:58.798Z,1.98
2023-05-17T13:09:28.853Z,2.00
2023-05-17T13:12:00.923Z,2.22
2023-05-17T13:14:44.365Z,2.88
2023-05-17T13:17:15.112Z,2.30
2023-05-17T13:19:42.354Z,2.00
2023-05-17T13:22:09.133Z,1.90
2023-05-17T13:24:37.734Z,1.98
2023-05-17T13:27:05.651Z,2.50
2023-05-17T13:29:39.616Z,2.38
2023-05-17T13:32:08.224Z,2.05
2023-05-17T13:34:35.572Z,1.92
2023-05-17T13:37:02.160Z,2.40
2023-05-17T13:39:28.701Z,1.90
2023-05-17T13:41:55.263Z,2.20
2023-05-17T13:44:21.999Z,2.42
2023-05-17T13:46:48.488Z,2.70
2023-05-17T13:49:15.256Z,2.65
2023-05-17T13:51:42.922Z,1.65
2023-05-17T13:54:10.573Z,2.20
2023-05-17T13:56:37.371Z,2.80
2023-05-17T13:59:04.031Z,2.20
2023-05-17T14:01:30.906Z,2.05
2023-05-17T14:03:57.753Z,1.88
2023-05-17T14:06:24.512Z,2.05
2023-05-17T14:08:53.142Z,3.40
2023-05-17T14:11:19.717Z,1.90
2023-05-17T14:13:46.320Z,2.50
2023-05-17T14:16:12.812Z,2.40
2023-05-17T14:18:40.718Z,2.67
2023-05-17T14:21:08.278Z,2.60
2023-05-17T14:23:35.524Z,2.20
2023-05-17T14:26:05.107Z,2.53
2023-05-17T14:28:31.903Z,2.20
2023-05-17T14:30:58.629Z,3.05
2023-05-17T14:33:26.835Z,2.97
2023-05-17T14:35:53.577Z,2.60
2023-05-17T14:38:22.292Z,2.60
2023-05-17T14:40:48.985Z,2.72
2023-05-17T14:43:15.898Z,2.30
2023-05-17T14:45:42.486Z,2.92
2023-05-17T14:48:09.194Z,2.47
2023-05-17T14:50:35.842Z,2.72
2023-05-17T14:53:02.522Z,2.45
2023-05-17T14:55:30.104Z,2.95
2023-05-17T14:57:57.987Z,2.53
2023-05-17T15:00:24.866Z,3.25
2023-05-17T15:02:51.436Z,2.63
2023-05-17T15:05:18.617Z,2.55
2023-05-17T15:07:45.278Z,3.25
2023-05-17T15:10:13.045Z,2.80
2023-05-17T15:12:39.556Z,3.33
2023-05-17T15:15:06.739Z,2.70
2023-05-17T15:17:33.855Z,2.33
2023-05-17T15:20:00.585Z,2.70
2023-05-17T15:22:27.118Z,2.50
2023-05-17T15:24:54.333Z,2.67
2023-05-17T15:27:21.040Z,2.63
2023-05-17T15:29:47.974Z,3.20
2023-05-17T15:32:14.599Z,2.85
2023-05-17T15:34:41.473Z,2.83
2023-05-17T15:37:08.021Z,3.08
2023-05-17T15:39:34.557Z,3.55
2023-05-17T15:42:01.095Z,2.90
2023-05-17T15:44:27.634Z,3.70
2023-05-17T15:46:54.231Z,3.28
2023-05-17T15:49:21.083Z,3.00
2023-05-17T15:51:47.767Z,2.67
2023-05-17T15:54:14.818Z,2.67
2023-05-17T15:56:42.056Z,2.90
2023-05-17T15:59:08.698Z,2.75
2023-05-17T16:01:35.592Z,3.15
2023-05-17T16:04:08.713Z,4.55
2023-05-17T16:06:36.733Z,2.92
2023-05-17T16:09:03.425Z,3.08
2023-05-17T16:11:30.003Z,3.20
2023-05-17T16:13:57.124Z,3.25
2023-05-17T16:16:23.716Z,2.75
2023-05-17T16:18:50.641Z,2.90
2023-05-17T16:21:17.280Z,3.13
2023-05-17T16:23:43.891Z,2.85
2023-05-17T16:26:10.770Z,2.80
2023-05-17T16:28:37.390Z,2.92
2023-05-17T16:31:05.621Z,3.25
2023-05-17T16:33:34.194Z,2.60
2023-05-17T16:36:00.962Z,3.25
2023-05-17T16:38:27.545Z,2.80
2023-05-17T16:40:54.104Z,2.80
2023-05-17T16:43:20.618Z,2.83
2023-05-17T16:45:47.127Z,2.92
2023-05-17T16:48:15.193Z,3.03
2023-05-17T16:50:42.326Z,2.42
2023-05-17T16:53:09.057Z,2.67
2023-05-17T16:55:36.604Z,2.10
2023-05-17T16:58:03.599Z,2.80
2023-05-17T17:00:31.232Z,3.35
2023-05-17T17:02:58.551Z,3.47
2023-05-17T17:05:25.760Z,2.75
2023-05-17T17:07:52.465Z,2.72
2023-05-17T17:10:20.135Z,3.60
2023-05-17T17:12:48.024Z,3.03
2023-05-17T17:15:15.454Z,3.03
2023-05-17T17:17:42.669Z,4.00
2023-05-17T17:20:09.789Z,3.40
2023-05-17T17:22:36.304Z,2.88
2023-05-17T17:25:03.044Z,3.33
2023-05-17T17:27:29.564Z,3.60
2023-05-17T17:29:56.169Z,2.80
2023-05-17T17:32:22.743Z,3.45
2023-05-17T17:34:49.368Z,2.70
2023-05-17T17:37:15.931Z,2.83
2023-05-17T17:39:42.498Z,4.25
2023-05-17T17:42:10.390Z,2.92
2023-05-17T17:44:36.946Z,2.28
2023-05-17T17:47:03.533Z,2.40
2023-05-17T17:49:30.257Z,2.50
2023-05-17T17:51:58.200Z,2.90
2023-05-17T17:54:24.798Z,2.42
2023-05-17T17:56:51.340Z,2.55
2023-05-17T17:59:17.847Z,2.72
2023-05-17T18:01:44.618Z,2.28
2023-05-17T18:04:13.542Z,2.75
2023-05-17T18:06:41.807Z,2.33
2023-05-17T18:09:08.684Z,2.30
2023-05-17T18:11:35.356Z,3.17
2023-05-17T18:14:02.581Z,2.80
2023-05-17T18:16:29.389Z,2.78
2023-05-17T18:18:56.340Z,2.50
2023-05-17T18:21:23.318Z,2.95
2023-05-17T18:23:49.918Z,2.20
2023-05-17T18:26:16.410Z,2.70
2023-05-17T18:28:43.291Z,3.03
2023-05-17T18:31:10.598Z,2.45
2023-05-17T18:33:37.183Z,3.05
2023-05-17T18:36:03.936Z,2.67
2023-05-17T18:38:30.544Z,3.08
2023-05-17T18:40:57.091Z,2.83
2023-05-17T18:43:23.600Z,2.45
2023-05-17T18:45:51.320Z,3.20
2023-05-17T18:48:18.076Z,2.30
2023-05-17T18:50:44.867Z,2.67
2023-05-17T18:53:12.853Z,2.30
2023-05-17T18:55:39.557Z,2.50
2023-05-17T18:58:06.059Z,1.88
2023-05-17T19:00:33.107Z,3.85
2023-05-17T19:02:59.822Z,2.60
2023-05-17T19:05:26.391Z,2.35
2023-05-17T19:07:52.932Z,2.75
2023-05-17T19:10:20.696Z,2.20
2023-05-17T19:12:47.274Z,2.90
2023-05-17T19:15:13.888Z,2.50
2023-05-17T19:17:40.607Z,2.40
2023-05-17T19:20:08.073Z,2.30
2023-05-17T19:22:35.824Z,2.33
2023-05-17T19:25:02.606Z,2.30
2023-05-17T19:27:29.457Z,2.58
2023-05-17T19:29:56.069Z,2.78
2023-05-17T19:32:22.862Z,2.88
2023-05-17T19:34:49.878Z,2.72
2023-05-17T19:37:16.638Z,2.45
2023-05-17T19:39:43.144Z,2.92
2023-05-17T19:42:09.645Z,2.38
2023-05-17T19:44:36.258Z,2.80
2023-05-17T19:47:02.827Z,2.88
2023-05-17T19:49:29.313Z,2.70
2023-05-17T19:52:00.558Z,2.50
2023-05-17T19:54:30.160Z,2.78
2023-05-17T19:56:57.482Z,2.47
2023-05-17T19:59:24.082Z,2.33
2023-05-17T20:01:50.987Z,2.47
2023-05-17T20:04:17.645Z,2.70
2023-05-17T20:06:44.275Z,2.60
2023-05-17T20:09:11.228Z,2.95
2023-05-17T20:11:37.923Z,2.40
2023-05-17T20:14:04.540Z,2.53
2023-05-17T20:16:31.252Z,2.55
2023-05-17T20:18:58.501Z,2.90
2023-05-17T20:21:26.348Z,2.80
2023-05-17T20:24:00.529Z,2.30
2023-05-17T20:26:31.508Z,3.17
2023-05-17T20:28:59.133Z,2.75
2023-05-17T20:31:26.141Z,2.45
2023-05-17T20:33:53.121Z,3.17
2023-05-17T20:36:19.816Z,2.63
2023-05-17T20:38:46.832Z,2.33
2023-05-17T20:41:15.013Z,2.85
2023-05-17T20:43:45.268Z,2.80
2023-05-17T20:46:15.976Z,3.40
2023-05-17T20:48:43.219Z,2.70
2023-05-17T20:51:10.789Z,2.42
2023-05-17T20:53:38.000Z,3.28
2023-05-17T20:56:05.417Z,2.90
2023-05-17T20:58:32.221Z,3.35
2023-05-17T21:01:02.708Z,2.90
2023-05-17T21:03:34.210Z,3.08
2023-05-17T21:06:02.203Z,3.28
2023-05-17T21:08:29.016Z,3.28
2023-05-17T21:10:56.160Z,3.22
2023-05-17T21:13:25.440Z,3.17
2023-05-17T21:15:53.450Z,2.78
2023-05-17T21:18:20.260Z,3.22
2023-05-17T21:20:46.966Z,2.88
2023-05-17T21:23:13.528Z,3.17
2023-05-17T21:25:40.071Z,2.83
2023-05-17T21:28:07.605Z,3.25
2023-05-17T21:30:34.174Z,2.70
2023-05-17T21:33:00.739Z,4.40
2023-05-17T21:35:27.263Z,2.75
2023-05-17T21:37:53.752Z,2.75
2023-05-17T21:40:26.296Z,2.72
2023-05-17T21:42:52.921Z,3.45
2023-05-17T21:45:19.537Z,3.35
2023-05-17T21:47:46.064Z,3.10
2023-05-17T21:50:12.637Z,4.18
2023-05-17T21:52:39.171Z,3.35
2023-05-17T21:55:06.460Z,2.88
2023-05-17T21:57:36.078Z,3.33
2023-05-17T22:00:04.874Z,3.42
2023-05-17T22:02:38.393Z,2.67
2023-05-17T22:05:05.711Z,3.25
2023-05-17T22:07:32.230Z,2.88
2023-05-17T22:09:58.834Z,3.08
2023-05-17T22:12:27.134Z,3.00
2023-05-17T22:15:00.288Z,2.40
2023-05-17T22:17:35.220Z,3.50
2023-05-17T22:20:11.349Z,2.72
2023-05-17T22:22:38.168Z,3.13
2023-05-17T22:25:05.475Z,3.15
2023-05-17T22:27:32.005Z,2.55
2023-05-17T22:29:59.745Z,3.05
2023-05-17T22:32:26.302Z,2.65
2023-05-17T22:34:53.061Z,2.90
2023-05-17T22:37:22.800Z,3.33
2023-05-17T22:39:49.794Z,2.83
2023-05-17T22:42:16.419Z,4.45
2023-05-17T22:44:42.984Z,2.65
2023-05-17T22:47:14.551Z,3.17
2023-05-17T22:49:41.661Z,3.13
2023-05-17T22:52:08.954Z,3.63
2023-05-17T22:54:37.026Z,3.25
2023-05-17T22:57:09.698Z,3.40
2023-05-17T22:59:36.289Z,2.72
2023-05-17T23:02:02.889Z,4.13
2023-05-17T23:04:30.070Z,2.90
2023-05-17T23:07:02.306Z,2.92
2023-05-17T23:09:33.712Z,2.80
2023-05-17T23:12:05.525Z,2.67
2023-05-17T23:14:34.061Z,3.25
2023-05-17T23:17:01.968Z,3.00
2023-05-17T23:19:29.898Z,3.47
2023-05-17T23:21:57.086Z,3.70
2023-05-17T23:24:25.763Z,2.95
2023-05-17T23:26:52.701Z,2.92
2023-05-17T23:29:20.011Z,2.97
2023-05-17T23:31:48.184Z,3.50
2023-05-17T23:34:15.547Z,3.70
2023-05-17T23:36:42.049Z,4.18
2023-05-17T23:39:09.090Z,3.30
2023-05-17T23:41:37.757Z,3.85
2023-05-17T23:44:05.447Z,3.00
2023-05-17T23:46:32.353Z,3.65
2023-05-17T23:48:58.882Z,3.65
2023-05-17T23:51:25.664Z,3.20
2023-05-17T23:53:52.356Z,3.40
2023-05-17T23:56:19.509Z,3.60
2023-05-17T23:58:46.830Z,2.83
